createdAt,value
2022-08-17T00:00:33.355Z,16.63
2022-08-17T00:03:15.138Z,16.10
2022-08-17T00:06:02.419Z,16.53
2022-08-17T00:08:36.316Z,16.67
2022-08-17T00:11:06.619Z,16.43
2022-08-17T00:13:46.162Z,16.63
2022-08-17T00:16:20.824Z,17.47
2022-08-17T00:19:21.159Z,18.17
2022-08-17T00:22:31.113Z,17.67
2022-08-17T00:24:36.587Z,17.13
2022-08-17T00:27:03.775Z,17.90
2022-08-17T00:29:31.443Z,16.10
2022-08-17T00:31:58.410Z,17.83
2022-08-17T00:34:25.315Z,17.93
2022-08-17T00:36:54.760Z,16.37
2022-08-17T00:39:21.585Z,15.93
2022-08-17T00:41:48.620Z,16.87
2022-08-17T00:44:17.858Z,17.00
2022-08-17T00:46:45.040Z,17.13
2022-08-17T00:49:13.101Z,18.00
2022-08-17T00:51:45.758Z,17.47
2022-08-17T00:54:23.001Z,16.63
2022-08-17T00:57:02.401Z,16.43
2022-08-17T00:59:43.958Z,17.03
2022-08-17T01:02:14.219Z,16.60
2022-08-17T01:04:43.237Z,17.10
2022-08-17T01:07:12.227Z,17.00
2022-08-17T01:09:40.455Z,17.80
2022-08-17T01:12:09.116Z,18.17
2022-08-17T01:14:36.876Z,17.20
2022-08-17T01:17:07.084Z,18.37
2022-08-17T01:19:39.173Z,18.97
2022-08-17T01:22:12.042Z,17.83
2022-08-17T01:24:43.200Z,18.50
2022-08-17T01:27:10.786Z,17.93
2022-08-17T01:29:39.890Z,18.00
2022-08-17T01:32:08.253Z,17.17
2022-08-17T01:34:42.574Z,18.97
2022-08-17T01:37:12.203Z,19.23
2022-08-17T01:39:53.958Z,17.77
2022-08-17T01:42:30.927Z,17.40
2022-08-17T01:45:01.903Z,18.80
2022-08-17T01:47:29.903Z,19.40
2022-08-17T01:49:58.011Z,18.40
2022-08-17T01:52:24.922Z,18.07
2022-08-17T01:54:52.520Z,18.77
2022-08-17T01:57:19.349Z,19.37
2022-08-17T01:59:46.209Z,18.80
2022-08-17T02:02:13.083Z,17.97
2022-08-17T02:04:58.089Z,17.47
2022-08-17T02:07:27.038Z,19.03
2022-08-17T02:09:54.422Z,18.17
2022-08-17T02:12:38.897Z,17.93
2022-08-17T02:15:09.809Z,18.33
2022-08-17T02:17:36.773Z,18.93
2022-08-17T02:20:08.287Z,18.50
2022-08-17T02:22:37.865Z,18.90
2022-08-17T02:25:09.287Z,20.30
2022-08-17T02:27:38.772Z,19.50
2022-08-17T02:30:59.889Z,19.30
2022-08-17T02:32:56.235Z,19.10
2022-08-17T02:35:23.607Z,19.03
2022-08-17T02:37:51.815Z,18.90
2022-08-17T02:40:36.111Z,20.17
2022-08-17T02:43:04.226Z,18.87
2022-08-17T02:45:31.091Z,18.23
2022-08-17T02:47:57.955Z,19.27
2022-08-17T02:50:25.438Z,18.57
2022-08-17T02:53:01.670Z,17.80
2022-08-17T02:55:38.036Z,17.70
2022-08-17T02:58:06.004Z,19.07
2022-08-17T03:00:41.065Z,19.47
2022-08-17T03:03:08.836Z,18.87
2022-08-17T03:05:37.841Z,18.10
2022-08-17T03:08:07.020Z,18.37
2022-08-17T03:10:40.184Z,18.63
2022-08-17T03:13:07.176Z,18.27
2022-08-17T03:15:35.076Z,18.00
2022-08-17T03:18:03.609Z,18.17
2022-08-17T03:20:32.351Z,17.37
2022-08-17T03:23:02.039Z,16.97
2022-08-17T03:25:36.671Z,18.30
2022-08-17T03:28:06.999Z,17.97
2022-08-17T03:30:34.354Z,16.67
2022-08-17T03:33:03.488Z,17.77
2022-08-17T03:35:33.346Z,17.23
2022-08-17T03:38:01.409Z,17.77
2022-08-17T03:40:34.602Z,17.23
2022-08-17T03:43:17.236Z,16.83
2022-08-17T03:46:02.685Z,17.57
2022-08-17T03:48:48.479Z,16.53
2022-08-17T03:51:40.412Z,16.47
2022-08-17T03:54:27.355Z,17.50
2022-08-17T03:57:07.103Z,16.60
2022-08-17T03:59:35.583Z,16.93
2022-08-17T04:02:09.830Z,16.37
2022-08-17T04:04:38.022Z,17.43
2022-08-17T04:07:05.565Z,17.50
2022-08-17T04:09:32.506Z,16.50
2022-08-17T04:12:02.386Z,17.27
2022-08-17T04:14:51.751Z,16.23
2022-08-17T04:17:21.952Z,17.87
2022-08-17T04:19:48.871Z,16.07
2022-08-17T04:22:30.954Z,17.53
2022-08-17T04:25:14.633Z,15.80
2022-08-17T04:27:41.454Z,15.70
2022-08-17T04:30:08.965Z,16.33
2022-08-17T04:33:14.043Z,16.97
2022-08-17T04:35:45.715Z,16.50
2022-08-17T04:38:18.334Z,16.13
2022-08-17T04:41:04.632Z,14.77
2022-08-17T04:43:33.102Z,14.77
2022-08-17T04:46:02.854Z,14.20
2022-08-17T04:48:36.150Z,14.57
2022-08-17T04:51:10.472Z,14.93
2022-08-17T04:53:40.553Z,14.97
2022-08-17T04:56:11.646Z,15.67
2022-08-17T04:58:44.836Z,14.90
2022-08-17T05:01:12.016Z,14.40
2022-08-17T05:03:38.867Z,14.33
2022-08-17T05:06:06.763Z,14.77
2022-08-17T05:08:33.849Z,18.50
2022-08-17T05:11:00.916Z,14.43
2022-08-17T05:13:32.092Z,14.73
2022-08-17T05:16:01.416Z,15.77
2022-08-17T05:18:29.953Z,14.63
2022-08-17T05:20:57.248Z,14.80
2022-08-17T05:23:25.750Z,14.93
2022-08-17T05:25:55.572Z,14.33
2022-08-17T05:28:26.549Z,15.23
2022-08-17T05:30:57.070Z,14.40
2022-08-17T05:33:28.654Z,14.77
2022-08-17T05:35:57.803Z,14.17
2022-08-17T05:38:26.244Z,14.67
2022-08-17T05:40:55.105Z,14.33
2022-08-17T05:43:26.367Z,14.17
2022-08-17T05:45:57.804Z,14.90
2022-08-17T05:48:39.676Z,13.93
2022-08-17T05:51:39.297Z,18.63
2022-08-17T05:54:09.170Z,14.17
2022-08-17T05:56:39.397Z,13.43
2022-08-17T05:59:30.644Z,14.03
2022-08-17T06:02:06.415Z,12.53
2022-08-17T06:04:47.090Z,13.03
2022-08-17T06:07:16.656Z,12.63
2022-08-17T06:09:57.478Z,12.40
2022-08-17T06:12:49.150Z,12.30
2022-08-17T06:15:49.570Z,12.63
2022-08-17T06:18:19.200Z,12.80
2022-08-17T06:20:51.932Z,12.80
2022-08-17T06:23:30.338Z,14.53
2022-08-17T06:26:04.033Z,12.33
2022-08-17T06:28:38.002Z,13.27
2022-08-17T06:31:21.409Z,12.90
2022-08-17T06:33:49.131Z,12.23
2022-08-17T06:36:37.578Z,12.63
2022-08-17T06:39:19.558Z,11.60
2022-08-17T06:41:57.275Z,11.87
2022-08-17T06:44:43.631Z,11.23
2022-08-17T06:47:36.446Z,11.80
2022-08-17T06:50:27.360Z,12.60
2022-08-17T06:53:12.304Z,11.43
2022-08-17T06:55:49.408Z,11.57
2022-08-17T06:58:22.372Z,11.60
2022-08-17T07:00:56.606Z,11.88
2022-08-17T07:03:37.853Z,12.37
2022-08-17T07:06:15.992Z,12.83
2022-08-17T07:09:25.603Z,13.13
2022-08-17T07:12:15.122Z,12.20
2022-08-17T07:14:57.514Z,12.90
2022-08-17T07:17:46.522Z,11.50
2022-08-17T07:20:20.465Z,13.57
2022-08-17T07:22:59.831Z,11.80
2022-08-17T07:25:30.741Z,12.02
2022-08-17T07:28:00.424Z,10.85
2022-08-17T07:30:47.009Z,10.63
2022-08-17T07:33:20.730Z,10.73
2022-08-17T07:35:49.895Z,10.68
2022-08-17T07:38:24.973Z,10.68
2022-08-17T07:41:02.183Z,10.90
2022-08-17T07:43:41.427Z,10.05
2022-08-17T07:46:50.940Z,10.80
2022-08-17T07:49:24.335Z,9.57
2022-08-17T07:51:51.153Z,10.27
2022-08-17T07:54:28.734Z,9.23
2022-08-17T07:56:59.066Z,9.45
2022-08-17T07:59:37.123Z,10.18
2022-08-17T08:02:17.184Z,10.10
2022-08-17T08:05:06.780Z,9.13
2022-08-17T08:07:39.538Z,10.13
2022-08-17T08:10:35.665Z,9.75
2022-08-17T08:13:14.149Z,9.40
2022-08-17T08:15:56.677Z,8.80
2022-08-17T08:18:56.085Z,8.98
2022-08-17T08:21:59.237Z,8.55
2022-08-17T08:24:41.339Z,8.48
2022-08-17T08:27:33.570Z,8.50
2022-08-17T08:30:12.168Z,9.20
2022-08-17T08:32:56.615Z,8.55
2022-08-17T08:35:39.017Z,8.07
2022-08-17T08:38:26.827Z,7.70
2022-08-17T08:41:24.157Z,7.93
2022-08-17T08:44:12.935Z,7.90
2022-08-17T08:47:07.001Z,8.07
2022-08-17T08:50:03.851Z,7.68
2022-08-17T08:52:57.253Z,7.47
2022-08-17T08:55:54.825Z,7.60
2022-08-17T08:58:41.798Z,7.82
2022-08-17T09:01:33.313Z,7.20
2022-08-17T09:04:25.529Z,6.70
2022-08-17T09:06:58.969Z,9.02
2022-08-17T09:09:49.742Z,8.05
2022-08-17T09:12:51.831Z,6.90
2022-08-17T09:15:25.675Z,7.35
2022-08-17T09:19:01.231Z,7.18
2022-08-17T09:21:28.641Z,7.00
2022-08-17T09:24:14.644Z,7.20
2022-08-17T09:27:11.821Z,7.05
2022-08-17T09:29:44.428Z,7.22
2022-08-17T09:32:31.247Z,7.20
2022-08-17T09:35:04.033Z,7.47
2022-08-17T09:37:47.239Z,7.40
2022-08-17T09:40:25.687Z,7.50
2022-08-17T09:43:06.407Z,7.72
2022-08-17T09:45:40.366Z,7.43
2022-08-17T09:48:25.705Z,7.53
2022-08-17T09:51:07.130Z,7.40
2022-08-17T09:53:38.146Z,7.72
2022-08-17T09:56:16.988Z,7.65
2022-08-17T09:58:56.478Z,8.02
2022-08-17T10:01:35.379Z,7.80
2022-08-17T10:04:05.674Z,8.15
2022-08-17T10:07:01.842Z,8.48
2022-08-17T10:10:00.747Z,8.00
2022-08-17T10:12:30.546Z,7.75
2022-08-17T10:15:17.450Z,7.65
2022-08-17T10:18:04.118Z,7.88
2022-08-17T10:20:41.914Z,8.75
2022-08-17T10:23:36.954Z,7.72
2022-08-17T10:26:14.974Z,7.55
2022-08-17T10:28:59.545Z,8.52
2022-08-17T10:31:39.883Z,8.07
2022-08-17T10:34:12.532Z,7.55
2022-08-17T10:37:09.824Z,8.10
2022-08-17T10:39:57.394Z,8.18
2022-08-17T10:42:33.353Z,8.20
2022-08-17T10:45:16.000Z,7.50
2022-08-17T10:48:21.146Z,6.88
2022-08-17T10:51:00.042Z,8.20
2022-08-17T10:53:32.746Z,7.22
2022-08-17T10:56:15.565Z,7.65
2022-08-17T10:58:50.626Z,7.55
2022-08-17T11:01:18.398Z,7.70
2022-08-17T11:04:27.652Z,7.57
2022-08-17T11:07:31.994Z,7.18
2022-08-17T11:10:10.621Z,6.80
2022-08-17T11:13:06.713Z,6.88
2022-08-17T11:16:23.356Z,6.82
2022-08-17T11:19:39.812Z,7.05
2022-08-17T11:26:26.973Z,6.68
2022-08-17T11:52:07.157Z,6.57
2022-08-17T11:54:46.263Z,6.55
2022-08-17T11:57:25.601Z,6.72
2022-08-17T12:00:11.540Z,6.80
2022-08-17T12:02:52.482Z,6.50
2022-08-17T12:05:43.922Z,6.05
2022-08-17T12:08:41.758Z,6.57
2022-08-17T12:12:04.645Z,6.05
2022-08-17T12:15:12.126Z,6.68
2022-08-17T12:17:52.448Z,6.32
2022-08-17T12:20:32.851Z,6.80
2022-08-17T12:23:19.566Z,6.20
2022-08-17T12:26:02.402Z,6.65
2022-08-17T12:28:35.081Z,6.50
2022-08-17T12:31:07.852Z,6.70
2022-08-17T12:33:51.872Z,6.95
2022-08-17T12:36:28.429Z,6.40
2022-08-17T12:39:24.934Z,6.88
2022-08-17T12:42:02.388Z,6.43
2022-08-17T12:44:32.808Z,6.50
2022-08-17T12:47:23.153Z,6.35
2022-08-17T12:49:55.100Z,6.50
2022-08-17T12:55:38.938Z,6.68
2022-08-17T12:58:14.300Z,7.05
2022-08-17T13:00:48.992Z,7.60
2022-08-17T13:03:36.288Z,7.25
2022-08-17T13:06:12.891Z,7.00
2022-08-17T13:08:46.537Z,7.40
2022-08-17T13:11:19.269Z,7.18
2022-08-17T13:13:50.835Z,7.00
2022-08-17T13:16:21.318Z,7.63
2022-08-17T13:18:52.757Z,6.70
2022-08-17T13:21:30.741Z,6.93
2022-08-17T13:24:02.088Z,6.78
2022-08-17T13:26:49.198Z,6.82
2022-08-17T13:29:37.218Z,7.03
2022-08-17T13:32:11.529Z,6.90
2022-08-17T13:35:15.086Z,6.43
2022-08-17T13:38:02.394Z,7.10
2022-08-17T13:40:42.715Z,6.78
2022-08-17T13:43:29.067Z,7.10
2022-08-17T13:46:09.030Z,7.55
2022-08-17T13:48:36.134Z,7.50
2022-08-17T13:51:13.690Z,7.70
2022-08-17T13:53:40.630Z,7.13
2022-08-17T13:56:37.428Z,7.30
2022-08-17T13:59:53.145Z,7.20
2022-08-17T14:02:14.288Z,7.40
2022-08-17T14:04:43.064Z,7.40
2022-08-17T14:07:14.886Z,8.73
2022-08-17T14:09:54.873Z,7.80
2022-08-17T14:12:27.097Z,7.20
2022-08-17T14:14:56.413Z,7.07
2022-08-17T14:17:24.675Z,6.78
2022-08-17T14:19:52.422Z,7.07
2022-08-17T14:22:25.698Z,6.90
2022-08-17T14:24:52.623Z,7.13
2022-08-17T14:27:20.596Z,6.85
2022-08-17T14:29:48.461Z,8.27
2022-08-17T14:32:22.040Z,7.28
2022-08-17T14:34:49.696Z,7.30
2022-08-17T14:37:18.301Z,7.50
2022-08-17T14:39:45.395Z,7.57
2022-08-17T14:42:12.521Z,7.50
2022-08-17T14:44:39.954Z,7.28
2022-08-17T14:47:12.309Z,7.32
2022-08-17T14:49:39.271Z,7.30
2022-08-17T14:52:06.486Z,6.80
2022-08-17T14:54:34.715Z,6.78
2022-08-17T14:57:22.566Z,7.25
2022-08-17T14:59:54.714Z,6.90
2022-08-17T15:02:30.265Z,7.20
2022-08-17T15:05:05.408Z,7.43
2022-08-17T15:07:32.513Z,7.28
2022-08-17T15:10:01.481Z,8.07
2022-08-17T15:12:33.118Z,7.90
2022-08-17T15:15:02.074Z,8.27
2022-08-17T15:17:44.553Z,7.30
2022-08-17T15:20:29.926Z,7.40
2022-08-17T15:22:59.049Z,7.30
2022-08-17T15:25:28.876Z,7.40
2022-08-17T15:27:56.084Z,6.97
2022-08-17T15:33:44.483Z,7.40
2022-08-17T15:36:11.363Z,7.25
2022-08-17T15:38:40.933Z,7.70
2022-08-17T15:41:17.227Z,7.72
2022-08-17T15:43:45.993Z,7.57
2022-08-17T15:46:17.583Z,7.25
2022-08-17T15:48:48.318Z,7.00
2022-08-17T15:51:27.985Z,7.70
2022-08-17T15:54:04.598Z,8.25
2022-08-17T15:56:46.619Z,7.90
2022-08-17T15:59:13.524Z,7.60
2022-08-17T16:03:14.277Z,8.43
2022-08-17T16:04:29.711Z,8.80
2022-08-17T16:06:58.789Z,8.40
2022-08-17T16:09:25.613Z,8.55
2022-08-17T16:11:55.664Z,8.20
2022-08-17T16:14:24.381Z,8.50
2022-08-17T16:16:52.739Z,8.23
2022-08-17T16:19:19.704Z,8.38
2022-08-17T16:21:46.534Z,8.45
2022-08-17T16:24:14.995Z,9.02
2022-08-17T16:26:42.532Z,9.38
2022-08-17T16:29:09.990Z,8.85
2022-08-17T16:31:37.902Z,9.15
2022-08-17T16:34:16.796Z,9.02
2022-08-17T16:36:55.265Z,9.65
2022-08-17T16:39:28.962Z,9.98
2022-08-17T16:41:56.615Z,10.32
2022-08-17T16:44:23.701Z,10.98
2022-08-17T16:46:50.757Z,10.45
2022-08-17T16:49:31.930Z,10.38
2022-08-17T16:52:11.753Z,11.13
2022-08-17T16:55:00.267Z,11.10
2022-08-17T16:57:28.050Z,10.68
2022-08-17T16:59:54.923Z,11.20
2022-08-17T17:02:36.576Z,11.93
2022-08-17T17:05:22.257Z,11.25
2022-08-17T17:08:08.981Z,11.98
2022-08-17T17:10:48.258Z,11.98
2022-08-17T17:13:37.412Z,11.68
2022-08-17T17:16:41.466Z,11.80
2022-08-17T17:19:17.972Z,11.48
2022-08-17T17:22:19.489Z,12.00
2022-08-17T17:25:18.573Z,12.43
2022-08-17T17:28:07.260Z,11.43
2022-08-17T17:30:43.431Z,12.30
2022-08-17T17:33:20.937Z,11.88
2022-08-17T17:35:56.869Z,12.15
2022-08-17T17:38:31.310Z,12.88
2022-08-17T17:41:06.763Z,12.25
2022-08-17T17:43:41.103Z,12.52
2022-08-17T17:46:27.306Z,13.30
2022-08-17T17:48:55.400Z,13.35
2022-08-17T17:54:44.178Z,12.00
2022-08-17T17:57:21.399Z,12.38
2022-08-17T18:00:23.513Z,13.27
2022-08-17T18:03:08.548Z,13.23
2022-08-17T18:06:08.160Z,13.20
2022-08-17T18:08:58.628Z,13.32
2022-08-17T18:11:44.175Z,13.32
2022-08-17T18:14:23.052Z,13.70
2022-08-17T18:17:00.487Z,13.63
2022-08-17T18:19:30.052Z,13.15
2022-08-17T18:22:21.497Z,13.95
2022-08-17T18:24:55.990Z,14.13
2022-08-17T18:28:05.028Z,13.85
2022-08-17T18:30:32.015Z,14.20
2022-08-17T18:33:19.701Z,13.88
2022-08-17T18:35:58.732Z,14.23
2022-08-17T18:38:38.131Z,14.00
2022-08-17T18:41:23.361Z,14.10
2022-08-17T18:44:28.638Z,14.25
2022-08-17T18:47:13.772Z,16.73
2022-08-17T18:49:42.911Z,14.98
2022-08-17T18:52:15.810Z,14.68
2022-08-17T18:55:08.899Z,14.70
2022-08-17T18:57:44.693Z,16.08
2022-08-17T19:00:32.296Z,15.68
2022-08-17T19:03:24.290Z,15.87
2022-08-17T19:05:52.658Z,15.65
2022-08-17T19:08:22.470Z,16.23
2022-08-17T19:11:11.669Z,16.63
2022-08-17T19:14:09.680Z,15.13
2022-08-17T19:16:57.355Z,16.38
2022-08-17T19:19:56.273Z,16.43
2022-08-17T19:22:33.117Z,16.83
2022-08-17T19:25:16.089Z,16.55
2022-08-17T19:27:57.259Z,16.52
2022-08-17T19:30:25.127Z,16.77
2022-08-17T19:32:53.070Z,17.02
2022-08-17T19:35:24.633Z,17.00
2022-08-17T19:37:51.633Z,16.88
2022-08-17T19:40:41.696Z,19.10
2022-08-17T19:43:11.224Z,17.20
2022-08-17T19:46:16.000Z,17.75
2022-08-17T19:48:57.898Z,17.20
2022-08-17T19:51:47.858Z,17.63
2022-08-17T19:54:20.580Z,18.17
2022-08-17T19:57:24.925Z,17.47
2022-08-17T20:00:01.878Z,18.30
2022-08-17T20:02:43.406Z,17.80
2022-08-17T20:05:28.587Z,17.93
2022-08-17T20:08:00.512Z,17.77
2022-08-17T20:10:48.005Z,18.17
2022-08-17T20:13:33.371Z,18.70
2022-08-17T20:16:01.304Z,19.03
2022-08-17T20:18:47.759Z,17.97
2022-08-17T20:21:34.969Z,18.77
2022-08-17T20:24:18.083Z,19.97
2022-08-17T20:26:58.884Z,18.27
2022-08-17T20:29:39.621Z,17.87
2022-08-17T20:32:22.058Z,19.13
2022-08-17T20:35:00.129Z,18.57
2022-08-17T20:37:31.517Z,19.50
2022-08-17T20:39:58.408Z,20.77
2022-08-17T20:42:26.009Z,18.93
2022-08-17T20:44:59.357Z,19.47
2022-08-17T20:48:00.781Z,18.93
2022-08-17T20:50:33.185Z,19.80
2022-08-17T20:53:10.028Z,19.60
2022-08-17T20:55:51.720Z,19.97
2022-08-17T20:58:31.177Z,20.27
2022-08-17T21:00:58.928Z,18.97
2022-08-17T21:03:39.981Z,19.33
2022-08-17T21:06:18.914Z,20.07
2022-08-17T21:09:29.758Z,20.57
2022-08-17T21:12:54.495Z,20.30
2022-08-17T21:16:13.515Z,20.27
2022-08-17T21:19:31.278Z,19.80
2022-08-17T21:23:27.203Z,20.00
2022-08-17T21:26:30.578Z,20.23
2022-08-17T21:29:31.212Z,19.70
2022-08-17T21:32:02.735Z,20.53
2022-08-17T21:34:33.076Z,20.10
2022-08-17T21:37:18.659Z,20.40
2022-08-17T21:39:56.141Z,19.93
2022-08-17T21:42:29.107Z,20.23
2022-08-17T21:45:09.882Z,19.47
2022-08-17T21:47:45.484Z,19.80
2022-08-17T21:50:24.362Z,20.53
2022-08-17T21:53:02.455Z,19.53
2022-08-17T21:55:32.158Z,20.02
2022-08-17T21:58:14.125Z,20.10
2022-08-17T22:00:44.510Z,19.70
2022-08-17T22:03:24.202Z,20.77
2022-08-17T22:05:51.692Z,20.50
2022-08-17T22:08:24.749Z,20.53
2022-08-17T22:11:05.868Z,21.13
2022-08-17T22:13:37.549Z,20.50
2022-08-17T22:16:04.409Z,20.77
2022-08-17T22:18:47.665Z,21.53
2022-08-17T22:21:22.451Z,21.63
2022-08-17T22:24:03.872Z,21.90
2022-08-17T22:27:01.925Z,21.67
2022-08-17T22:29:54.258Z,21.90
2022-08-17T22:32:45.947Z,20.17
2022-08-17T22:35:29.295Z,22.53
2022-08-17T22:37:57.405Z,20.50
2022-08-17T22:40:34.549Z,20.80
2022-08-17T22:43:03.610Z,21.70
2022-08-17T22:45:31.278Z,21.13
2022-08-17T22:48:00.302Z,21.40
2022-08-17T22:50:30.694Z,21.83
2022-08-17T22:53:22.348Z,23.23
2022-08-17T22:56:13.968Z,22.30
2022-08-17T22:59:11.642Z,23.57
2022-08-17T23:01:39.521Z,22.93
2022-08-17T23:04:10.544Z,22.57
2022-08-17T23:06:40.132Z,23.13
2022-08-17T23:09:08.098Z,23.27
2022-08-17T23:11:50.490Z,23.30
2022-08-17T23:14:20.224Z,22.57
2022-08-17T23:16:49.026Z,23.33
2022-08-17T23:19:19.614Z,23.43
2022-08-17T23:21:47.434Z,23.10
2022-08-17T23:24:22.675Z,23.60
2022-08-17T23:26:49.970Z,22.63
2022-08-17T23:29:16.829Z,23.77
2022-08-17T23:31:43.780Z,22.87
2022-08-17T23:34:13.693Z,23.80
2022-08-17T23:36:41.178Z,23.87
2022-08-17T23:39:08.224Z,22.90
2022-08-17T23:41:38.606Z,22.87
2022-08-17T23:44:06.425Z,23.33
2022-08-17T23:46:33.368Z,22.37
2022-08-17T23:49:00.642Z,22.83
2022-08-17T23:51:31.463Z,22.63
2022-08-17T23:54:08.233Z,24.10
2022-08-17T23:56:42.178Z,23.73
2022-08-17T23:59:09.132Z,21.63
